No se requiere un especial cuidado respecto a la situación meteorológica.   -   No hay avisos

Informes METAR

 

LEZL - Sevilla, Spain
Distancia de la estación: ENE 8km
Actualización: 09/12/2016 16:00
Poco nuboso
Poco nuboso
 Viento de E
Viento: E 15 km/h
Temperatura: 21°C
Rocío: 12°C
Humedad: 57%
Barómetro: 1027 hPa
Nubes: Poco nuboso
Visibilidad: 10 km
Detalles de las nubes: Poco nuboso 853 m
2016/12/09 15:00 LEZL 091500Z 08008KT 9999 FEW028 21/12 Q1027 NOSIG
LEMO - Morón, Spain
Distancia de la estación: SE 43km
Actualización: 09/12/2016 16:00
Despejado
Despejado
 Viento de variable
Viento: variable 4 km/h
Temperatura: 21°C
Rocío: 10°C
Humedad: 50%
Barómetro: 1027 hPa
Resumen: Despejado
Visibilidad: mayor de 10 km
2016/12/09 15:00 LEMO 091500Z VRB02KT CAVOK 21/10 Q1027 NOSIG
LEJR - Jeréz, Spain
Distancia de la estación: S 71km
Actualización: 09/12/2016 16:30
Despejado
Despejado
 Viento de SSE
Viento: SSE 11 km/h
Temperatura: 21°C
Rocío: 14°C
Humedad: 64%
Barómetro: 1027 hPa
Resumen: Despejado
Visibilidad: mayor de 10 km
2016/12/09 15:30 LEJR 091530Z 15006KT 100V190 CAVOK 21/14 Q1027
 
LERT - Rota, Spain
Distancia de la estación: SSO 89km
Actualización: 09/12/2016 16:00
Despejado
Despejado
 Viento de ESE
Viento: ESE 35 km/h
Temperatura: 19°C
Rocío: 13°C
Humedad: 68%
Barómetro: 1027 hPa
Resumen: Despejado
Visibilidad: mayor de 10 km
2016/12/09 15:00 LERT 091500Z 12019KT CAVOK 19/13 Q1027 NOSIG
LEMG - Málaga, Spain
Distancia de la estación: ESE 157km
Actualización: 09/12/2016 16:00
Muy nuboso
Muy nuboso
 Viento de ESE
Viento: ESE 11 km/h
Temperatura: 17°C
Rocío: 14°C
Humedad: 83%
Barómetro: 1030 hPa
Nubes: Muy nuboso
Visibilidad: 10 km
Detalles de las nubes: Poco nuboso 244 m
Parcialmente nuboso 610 m
Muy nuboso 914 m
2016/12/09 15:00 LEMG 091500Z 12006KT 9999 FEW008 SCT020 BKN030 17/14 Q1030 NOSIG
LEBA - Córdoba, Spain
Distancia de la estación: ENE 115km
Actualización: 09/12/2016 16:00
Despejado
Despejado
 Viento de NE
Viento: NE 7 km/h
Barómetro: 1029 hPa
Nubes: Despejado
Visibilidad: 10 km
2016/12/09 15:00 LEBA 091500Z AUTO 05004KT 9999 NCD ///// Q1029
 
LEGR - Granada, Spain
Distancia de la estación: E 198km
Actualización: 09/12/2016 16:00
Poco nuboso
Poco nuboso
 Viento de variable
Viento: variable 2 km/h
Temperatura: 17°C
Rocío: 9°C
Humedad: 59%
Barómetro: 1029 hPa
Nubes: Poco nuboso
Visibilidad: 10 km
Detalles de las nubes: Poco nuboso 1219 m
2016/12/09 15:00 LEGR 091500Z VRB01KT 9999 FEW040 17/09 Q1029
LEAM - Almería, Spain
Distancia de la estación: E 326km
Actualización: 09/12/2016 16:00
Poco nuboso
Poco nuboso
 Viento de ENE
Viento: ENE 24 km/h
Temperatura: 19°C
Rocío: 14°C
Humedad: 73%
Barómetro: 1030 hPa
Nubes: Poco nuboso
Visibilidad: 10 km
Detalles de las nubes: Poco nuboso 1219 m
2016/12/09 15:00 LEAM 091500Z 07013KT 9999 FEW040 19/14 Q1030
LEMD - Madrid/Barajas, Spain
Distancia de la estación: NNE 402km
Actualización: 09/12/2016 16:00
Parcialmente nuboso
Parcialmente nuboso
 Viento de N
Viento: N 7 km/h
Temperatura: 14°C
Rocío: 8°C
Humedad: 67%
Barómetro: 1031 hPa
Nubes: Parcialmente nuboso
Visibilidad: 10 km
Detalles de las nubes: Parcialmente nuboso 1189 m
2016/12/09 15:00 LEMD 091500Z 36004KT 310V020 9999 SCT039 14/08 Q1031 NOSIG
 
LEVD - Valladolid, Spain
Distancia de la estación: N 492km
Actualización: 09/12/2016 16:00
Despejado
Despejado
 Viento de variable
Viento: variable 4 km/h
Temperatura: 10°C
Rocío: 5°C
Humedad: 71%
Barómetro: 1031 hPa
Resumen: Despejado
Visibilidad: mayor de 10 km
2016/12/09 15:00 LEVD 091500Z VRB02KT CAVOK 10/05 Q1031
LEBL - Barcelona, Spain
Distancia de la estación: NE 816km
Actualización: 09/12/2016 16:00
Despejado
Despejado
 Viento de SO
Viento: SO 26 km/h
Temperatura: 16°C
Rocío: 10°C
Humedad: 68%
Barómetro: 1030 hPa
Resumen: Despejado
Visibilidad: mayor de 10 km
2016/12/09 15:00 LEBL 091500Z 22014KT CAVOK 16/10 Q1030 NOSIG
LEVC - Valencia, Spain
Distancia de la estación: ENE 535km
Actualización: 09/12/2016 16:00
Muy nuboso
Muy nuboso
 Viento de variable
Viento: variable 2 km/h
Temperatura: 18°C
Rocío: 7°C
Humedad: 49%
Barómetro: 1031 hPa
Nubes: Muy nuboso
Visibilidad: 10 km
Detalles de las nubes: Muy nuboso 1524 m
2016/12/09 15:00 LEVC 091500Z VRB01KT 9999 BKN050 18/07 Q1031 NOSIG